createdAt,value
2022-10-09T00:00:34.257Z,5.80
2022-10-09T00:02:37.490Z,8.13
2022-10-09T00:04:40.668Z,9.68
2022-10-09T00:06:43.919Z,12.20
2022-10-09T00:08:47.162Z,8.10
2022-10-09T00:10:50.171Z,7.43
2022-10-09T00:12:53.246Z,8.30
2022-10-09T00:14:57.703Z,7.72
2022-10-09T00:17:00.739Z,14.43
2022-10-09T00:19:03.993Z,12.45
2022-10-09T00:21:07.357Z,7.57
2022-10-09T00:23:10.773Z,6.63
2022-10-09T00:25:13.796Z,6.45
2022-10-09T00:27:17.095Z,7.50
2022-10-09T00:29:20.243Z,7.07
2022-10-09T00:31:25.040Z,6.75
2022-10-09T00:33:28.131Z,8.68
2022-10-09T00:35:31.100Z,5.70
2022-10-09T00:37:34.114Z,8.73
2022-10-09T00:39:37.553Z,6.95
2022-10-09T00:41:41.161Z,5.97
2022-10-09T00:43:46.611Z,7.18
2022-10-09T00:45:51.530Z,8.00
2022-10-09T00:47:58.407Z,7.25
2022-10-09T00:50:06.734Z,9.80
2022-10-09T00:52:09.782Z,8.35
2022-10-09T00:54:15.101Z,7.45
2022-10-09T00:56:18.134Z,8.30
2022-10-09T00:58:21.392Z,7.72
2022-10-09T01:00:25.049Z,6.28
2022-10-09T01:02:28.328Z,10.30
2022-10-09T01:04:33.356Z,7.72
2022-10-09T01:06:45.007Z,8.73
2022-10-09T01:08:52.563Z,10.63
2022-10-09T01:11:00.960Z,8.65
2022-10-09T01:13:08.617Z,9.50
2022-10-09T01:15:18.498Z,6.72
2022-10-09T01:17:26.707Z,6.28
2022-10-09T01:20:04.588Z,7.00
2022-10-09T01:22:17.325Z,7.95
2022-10-09T01:24:26.943Z,7.28
2022-10-09T01:27:12.176Z,6.25
2022-10-09T01:29:16.094Z,5.22
2022-10-09T01:31:20.572Z,8.18
2022-10-09T01:33:24.107Z,5.93
2022-10-09T01:35:28.363Z,11.40
2022-10-09T01:37:31.999Z,6.68
2022-10-09T01:39:36.524Z,6.18
2022-10-09T01:41:40.205Z,5.60
2022-10-09T01:43:45.053Z,6.13
2022-10-09T01:45:49.340Z,7.90
2022-10-09T01:47:53.217Z,8.00
2022-10-09T01:50:00.858Z,7.88
2022-10-09T01:52:08.429Z,6.63
2022-10-09T01:54:14.585Z,8.73
2022-10-09T01:56:22.214Z,7.68
2022-10-09T01:58:30.836Z,12.30
2022-10-09T02:00:38.221Z,13.00
2022-10-09T02:02:43.072Z,8.55
2022-10-09T02:04:46.724Z,32.80
2022-10-09T02:06:50.431Z,26.25
2022-10-09T02:08:55.238Z,24.70
2022-10-09T02:10:59.822Z,11.25
2022-10-09T02:13:03.548Z,14.40
2022-10-09T02:15:08.439Z,7.18
2022-10-09T02:17:17.088Z,9.60
2022-10-09T02:19:24.753Z,8.07
2022-10-09T02:21:34.155Z,7.15
2022-10-09T02:23:38.269Z,9.55
2022-10-09T02:25:42.717Z,7.65
2022-10-09T02:27:46.494Z,7.13
2022-10-09T02:29:50.375Z,5.53
2022-10-09T02:31:54.069Z,6.85
2022-10-09T02:33:59.601Z,8.75
2022-10-09T02:36:02.996Z,8.30
2022-10-09T02:38:06.574Z,9.45
2022-10-09T02:40:11.236Z,5.43
2022-10-09T02:42:14.751Z,7.10
2022-10-09T02:44:18.193Z,5.85
2022-10-09T02:46:22.134Z,9.18
2022-10-09T02:48:25.524Z,8.68
2022-10-09T02:50:30.263Z,6.35
2022-10-09T02:52:33.760Z,6.63
2022-10-09T02:54:36.822Z,11.32
2022-10-09T02:56:39.759Z,8.68
2022-10-09T02:58:42.829Z,6.72
2022-10-09T03:00:49.282Z,8.50
2022-10-09T03:02:52.908Z,7.90
2022-10-09T03:04:56.151Z,7.53
2022-10-09T03:07:00.543Z,10.00
2022-10-09T03:09:03.794Z,6.78
2022-10-09T03:11:06.876Z,7.60
2022-10-09T03:13:10.381Z,10.88
2022-10-09T03:15:14.104Z,6.95
2022-10-09T03:17:17.144Z,8.15
2022-10-09T03:19:20.160Z,7.10
2022-10-09T03:21:24.665Z,7.15
2022-10-09T03:23:28.963Z,6.63
2022-10-09T03:25:31.957Z,8.93
2022-10-09T03:27:34.959Z,5.43
2022-10-09T03:29:37.984Z,7.20
2022-10-09T03:31:51.725Z,6.65
2022-10-09T03:33:55.664Z,7.50
2022-10-09T03:35:58.623Z,5.93
2022-10-09T03:38:01.561Z,6.50
2022-10-09T03:40:06.851Z,7.13
2022-10-09T03:42:09.863Z,7.40
2022-10-09T03:44:12.900Z,5.60
2022-10-09T03:46:15.886Z,8.13
2022-10-09T03:48:18.924Z,6.40
2022-10-09T03:50:21.915Z,8.82
2022-10-09T03:52:25.230Z,7.75
2022-10-09T03:54:28.299Z,5.35
2022-10-09T03:56:32.657Z,6.88
2022-10-09T03:58:35.700Z,6.00
2022-10-09T04:00:38.876Z,6.65
2022-10-09T04:02:42.163Z,5.50
2022-10-09T04:04:45.156Z,6.35
2022-10-09T04:06:48.311Z,6.07
2022-10-09T04:08:51.235Z,10.73
2022-10-09T04:10:57.844Z,5.82
2022-10-09T04:13:02.224Z,6.13
2022-10-09T04:15:05.813Z,6.20
2022-10-09T04:17:08.864Z,4.90
2022-10-09T04:19:12.182Z,13.07
2022-10-09T04:21:15.238Z,8.60
2022-10-09T04:23:18.625Z,8.45
2022-10-09T04:25:21.745Z,8.23
2022-10-09T04:27:24.743Z,7.90
2022-10-09T04:29:29.136Z,7.68
2022-10-09T04:31:32.282Z,5.35
2022-10-09T04:33:35.319Z,6.22
2022-10-09T04:35:42.822Z,11.55
2022-10-09T04:37:46.087Z,8.43
2022-10-09T04:39:49.069Z,7.95
2022-10-09T04:41:52.156Z,6.45
2022-10-09T04:43:55.907Z,7.10
2022-10-09T04:46:00.536Z,7.22
2022-10-09T04:48:03.542Z,5.70
2022-10-09T04:50:07.698Z,6.72
2022-10-09T04:52:10.618Z,7.65
2022-10-09T04:54:13.809Z,6.45
2022-10-09T04:56:19.304Z,6.45
2022-10-09T04:58:22.265Z,5.32
2022-10-09T05:00:25.243Z,6.30
2022-10-09T05:02:29.583Z,8.55
2022-10-09T05:04:32.782Z,6.13
2022-10-09T05:06:35.916Z,8.23
2022-10-09T05:08:39.538Z,8.43
2022-10-09T05:10:42.590Z,8.95
2022-10-09T05:12:45.903Z,6.35
2022-10-09T05:14:49.032Z,7.93
2022-10-09T05:17:12.407Z,6.15
2022-10-09T05:19:17.235Z,10.23
2022-10-09T05:21:20.864Z,8.82
2022-10-09T05:23:23.862Z,6.40
2022-10-09T05:25:26.865Z,8.30
2022-10-09T05:27:29.883Z,8.82
2022-10-09T05:29:32.874Z,8.75
2022-10-09T05:31:35.951Z,7.63
2022-10-09T05:33:38.922Z,7.32
2022-10-09T05:35:51.355Z,8.15
2022-10-09T05:37:54.499Z,7.35
2022-10-09T05:39:57.482Z,5.90
2022-10-09T05:42:00.442Z,9.52
2022-10-09T05:44:04.408Z,7.53
2022-10-09T05:46:09.559Z,12.82
2022-10-09T05:48:12.726Z,6.68
2022-10-09T05:50:15.856Z,6.63
2022-10-09T05:52:20.160Z,7.40
2022-10-09T05:54:23.166Z,7.55
2022-10-09T05:56:27.334Z,6.70
2022-10-09T05:58:30.237Z,8.30
2022-10-09T06:00:33.321Z,8.85
2022-10-09T06:02:36.371Z,6.90
2022-10-09T06:04:39.461Z,8.27
2022-10-09T06:06:42.874Z,9.00
2022-10-09T06:08:47.531Z,6.57
2022-10-09T06:10:50.438Z,7.82
2022-10-09T06:12:53.374Z,9.90
2022-10-09T06:14:56.325Z,7.10
2022-10-09T06:17:01.423Z,14.15
2022-10-09T06:19:05.457Z,7.43
2022-10-09T06:21:08.786Z,9.30
2022-10-09T06:23:11.801Z,8.47
2022-10-09T06:25:16.378Z,7.40
2022-10-09T06:27:19.455Z,7.63
2022-10-09T06:29:22.646Z,8.05
2022-10-09T06:31:27.640Z,7.97
2022-10-09T06:33:32.715Z,8.97
2022-10-09T06:35:35.813Z,7.60
2022-10-09T06:37:38.787Z,7.07
2022-10-09T06:39:41.819Z,7.03
2022-10-09T06:41:46.247Z,7.60
2022-10-09T06:44:17.375Z,13.70
2022-10-09T06:46:21.432Z,9.10
2022-10-09T06:48:24.616Z,8.40
2022-10-09T06:50:27.982Z,10.55
2022-10-09T06:52:31.060Z,11.50
2022-10-09T06:54:34.251Z,11.45
2022-10-09T06:56:37.265Z,11.23
2022-10-09T06:58:42.012Z,8.10
2022-10-09T07:00:44.961Z,10.00
2022-10-09T07:02:48.334Z,8.57
2022-10-09T07:04:51.503Z,8.90
2022-10-09T07:06:54.807Z,7.80
2022-10-09T07:09:00.295Z,8.97
2022-10-09T07:11:09.681Z,7.10
2022-10-09T07:13:12.779Z,7.17
2022-10-09T07:15:17.131Z,6.43
2022-10-09T07:17:20.087Z,10.03
2022-10-09T07:19:23.136Z,8.10
2022-10-09T07:21:26.378Z,8.80
2022-10-09T07:23:29.616Z,8.30
2022-10-09T07:25:32.557Z,10.93
2022-10-09T07:27:36.176Z,7.30
2022-10-09T07:29:39.699Z,7.13
2022-10-09T07:31:44.492Z,7.30
2022-10-09T07:33:48.366Z,6.97
2022-10-09T07:35:55.342Z,6.90
2022-10-09T07:37:58.336Z,6.43
2022-10-09T07:40:01.324Z,7.30
2022-10-09T07:42:04.804Z,6.60
2022-10-09T07:44:07.783Z,7.83
2022-10-09T07:46:13.768Z,6.43
2022-10-09T07:48:19.316Z,7.20
2022-10-09T07:50:22.294Z,7.83
2022-10-09T07:52:25.364Z,9.93
2022-10-09T07:54:28.321Z,6.50
2022-10-09T07:56:33.038Z,6.80
2022-10-09T07:58:36.173Z,6.97
2022-10-09T08:00:39.307Z,7.53
2022-10-09T08:02:42.367Z,7.80
2022-10-09T08:04:46.821Z,6.97
2022-10-09T08:06:49.816Z,9.30
2022-10-09T08:08:54.360Z,4.07
2022-10-09T08:10:57.354Z,5.23
2022-10-09T08:13:00.367Z,5.93
2022-10-09T08:15:03.267Z,6.00
2022-10-09T08:17:06.362Z,6.00
2022-10-09T08:19:10.537Z,6.83
2022-10-09T08:21:16.444Z,5.60
2022-10-09T08:23:19.477Z,7.10
2022-10-09T08:25:22.539Z,6.90
2022-10-09T08:27:25.572Z,8.57
2022-10-09T08:29:28.613Z,5.40
2022-10-09T08:31:32.648Z,5.27
2022-10-09T08:33:35.673Z,5.93
2022-10-09T08:35:40.543Z,6.07
2022-10-09T08:37:46.179Z,7.20
2022-10-09T08:39:49.180Z,5.33
2022-10-09T08:41:54.292Z,9.23
2022-10-09T08:44:01.810Z,5.27
2022-10-09T08:46:09.214Z,5.30
2022-10-09T08:48:15.826Z,6.60
2022-10-09T08:50:22.976Z,5.60
2022-10-09T08:52:34.519Z,6.10
2022-10-09T08:54:40.530Z,4.87
2022-10-09T08:56:43.536Z,4.57
2022-10-09T08:58:46.684Z,5.50
2022-10-09T09:00:51.885Z,5.40
2022-10-09T09:03:20.974Z,4.57
2022-10-09T09:05:32.165Z,4.37
2022-10-09T09:07:41.733Z,5.50
2022-10-09T09:09:54.160Z,7.17
2022-10-09T09:12:02.028Z,6.47
2022-10-09T09:14:19.860Z,6.07
2022-10-09T09:16:29.039Z,4.77
2022-10-09T09:18:42.686Z,5.30
2022-10-09T09:20:52.934Z,6.53
2022-10-09T09:22:58.098Z,4.83
2022-10-09T09:25:03.460Z,3.70
2022-10-09T09:27:12.834Z,5.00
2022-10-09T09:29:17.247Z,7.13
2022-10-09T09:31:24.314Z,6.80
2022-10-09T09:33:37.310Z,6.87
2022-10-09T09:35:49.499Z,5.30
2022-10-09T09:37:52.516Z,5.17
2022-10-09T09:40:34.788Z,4.53
2022-10-09T09:42:21.847Z,7.07
2022-10-09T09:44:26.730Z,5.40
2022-10-09T09:46:31.333Z,5.00
2022-10-09T09:48:36.422Z,4.70
2022-10-09T09:50:50.441Z,3.60
2022-10-09T09:53:02.977Z,5.50
2022-10-09T09:55:06.919Z,3.33
2022-10-09T09:57:17.024Z,5.00
2022-10-09T09:59:37.286Z,4.67
2022-10-09T10:01:40.461Z,5.20
2022-10-09T10:03:50.890Z,5.10
2022-10-09T10:05:54.225Z,5.40
2022-10-09T10:07:57.618Z,4.23
2022-10-09T10:10:08.196Z,4.90
2022-10-09T10:12:17.740Z,4.90
2022-10-09T10:14:20.808Z,5.60
2022-10-09T10:16:27.182Z,5.40
2022-10-09T10:18:33.390Z,2.43
2022-10-09T10:20:44.593Z,3.60
2022-10-09T10:22:52.899Z,4.80
2022-10-09T10:24:58.065Z,3.07
2022-10-09T10:27:04.920Z,3.73
2022-10-09T10:29:13.361Z,2.90
2022-10-09T10:31:27.082Z,3.00
2022-10-09T10:33:34.463Z,4.50
2022-10-09T10:35:39.851Z,5.47
2022-10-09T10:37:46.685Z,2.87
2022-10-09T10:39:52.187Z,3.40
2022-10-09T10:41:58.578Z,5.73
2022-10-09T10:44:09.200Z,5.33
2022-10-09T10:46:18.829Z,5.37
2022-10-09T10:48:24.655Z,2.90
2022-10-09T10:50:36.253Z,4.30
2022-10-09T10:52:47.216Z,3.73
2022-10-09T10:54:53.753Z,5.60
2022-10-09T10:57:03.110Z,4.00
2022-10-09T10:59:20.902Z,3.43
2022-10-09T11:01:31.394Z,3.23
2022-10-09T11:03:44.031Z,3.43
2022-10-09T11:05:51.702Z,3.60
2022-10-09T11:08:03.999Z,4.60
2022-10-09T11:10:12.978Z,5.37
2022-10-09T11:12:43.237Z,4.10
2022-10-09T11:14:49.844Z,4.17
2022-10-09T11:17:01.612Z,5.43
2022-10-09T11:19:18.457Z,3.97
2022-10-09T11:21:39.142Z,3.50
2022-10-09T11:24:01.091Z,5.63
2022-10-09T11:26:13.101Z,4.40
2022-10-09T11:28:17.131Z,3.93
2022-10-09T11:30:20.312Z,2.80
2022-10-09T11:32:25.651Z,3.37
2022-10-09T11:34:33.319Z,5.53
2022-10-09T11:36:41.532Z,6.20
2022-10-09T11:38:47.467Z,4.10
2022-10-09T11:40:50.612Z,4.57
2022-10-09T11:42:59.737Z,3.80
2022-10-09T11:45:10.426Z,3.60
2022-10-09T11:47:21.873Z,3.90
2022-10-09T11:49:27.635Z,5.97
2022-10-09T11:51:35.191Z,3.47
2022-10-09T11:53:40.416Z,3.80
2022-10-09T11:55:43.898Z,5.20
2022-10-09T11:57:47.383Z,6.30
2022-10-09T11:59:50.603Z,3.87
2022-10-09T12:01:53.813Z,5.10
2022-10-09T12:04:02.082Z,4.20
2022-10-09T12:06:09.317Z,4.00
2022-10-09T12:08:18.342Z,3.20
2022-10-09T12:10:27.736Z,4.23
2022-10-09T12:12:33.950Z,4.23
2022-10-09T12:14:38.942Z,9.20
2022-10-09T12:16:43.997Z,3.00
2022-10-09T12:18:48.140Z,4.17
2022-10-09T12:20:52.068Z,4.93
2022-10-09T12:23:21.889Z,2.57
2022-10-09T12:25:27.543Z,3.27
2022-10-09T12:27:33.521Z,4.37
2022-10-09T12:29:42.016Z,3.13
2022-10-09T12:31:45.122Z,3.30
2022-10-09T12:33:51.080Z,3.10
2022-10-09T12:36:02.336Z,6.30
2022-10-09T12:38:17.165Z,4.37
2022-10-09T12:40:24.365Z,3.40
2022-10-09T12:42:28.756Z,4.73
2022-10-09T12:44:33.655Z,4.87
2022-10-09T12:46:38.621Z,3.93
2022-10-09T12:48:45.793Z,3.80
2022-10-09T12:50:49.254Z,3.30
2022-10-09T12:52:54.934Z,3.60
2022-10-09T12:54:57.925Z,4.23
2022-10-09T12:57:01.964Z,4.80
2022-10-09T12:59:07.651Z,3.30
2022-10-09T13:01:14.438Z,4.30
2022-10-09T13:03:24.423Z,4.50
2022-10-09T13:05:37.047Z,3.93
2022-10-09T13:07:40.345Z,4.67
2022-10-09T13:09:43.443Z,2.47
2022-10-09T13:11:47.278Z,2.87
2022-10-09T13:13:51.178Z,4.60
2022-10-09T13:16:03.883Z,4.27
2022-10-09T13:18:14.716Z,4.53
2022-10-09T13:20:26.426Z,3.03
2022-10-09T13:22:35.059Z,2.97
2022-10-09T13:24:38.995Z,3.50
2022-10-09T13:26:44.021Z,3.63
2022-10-09T13:28:47.226Z,6.20
2022-10-09T13:30:50.533Z,4.23
2022-10-09T13:32:54.917Z,2.87
2022-10-09T13:34:58.214Z,3.50
2022-10-09T13:37:01.403Z,3.70
2022-10-09T13:39:05.306Z,3.97
2022-10-09T13:41:08.455Z,3.77
2022-10-09T13:43:14.125Z,6.50
2022-10-09T13:45:17.330Z,3.87
2022-10-09T13:47:24.211Z,4.50
2022-10-09T13:49:29.134Z,4.13
2022-10-09T13:51:32.668Z,4.00
2022-10-09T13:53:36.086Z,3.80
2022-10-09T13:55:39.400Z,3.50
2022-10-09T13:57:42.408Z,4.83
2022-10-09T13:59:45.661Z,8.07
2022-10-09T14:01:48.885Z,3.77
2022-10-09T14:03:51.965Z,3.00
2022-10-09T14:06:00.270Z,5.13
2022-10-09T14:08:03.277Z,4.50
2022-10-09T14:10:07.312Z,5.63
2022-10-09T14:12:10.336Z,3.17
2022-10-09T14:14:13.294Z,4.20
2022-10-09T14:16:16.527Z,4.53
2022-10-09T14:18:19.813Z,5.50
2022-10-09T14:20:25.073Z,3.30
2022-10-09T14:22:29.525Z,3.60
2022-10-09T14:24:32.636Z,3.90
2022-10-09T14:26:35.682Z,3.77
2022-10-09T14:28:39.408Z,4.67
2022-10-09T14:30:42.665Z,3.63
2022-10-09T14:32:45.803Z,3.93
2022-10-09T14:34:48.990Z,3.83
2022-10-09T14:36:52.421Z,3.10
2022-10-09T14:38:57.208Z,4.60
2022-10-09T14:41:00.523Z,3.40
2022-10-09T14:43:03.554Z,3.80
2022-10-09T14:45:07.377Z,2.90
2022-10-09T14:47:10.417Z,3.67
2022-10-09T14:49:13.565Z,3.67
2022-10-09T14:51:18.131Z,3.77
2022-10-09T14:53:21.299Z,4.63
2022-10-09T14:55:26.208Z,5.53
2022-10-09T14:57:32.986Z,3.20
2022-10-09T14:59:38.374Z,6.10
2022-10-09T15:01:41.490Z,3.70
2022-10-09T15:03:44.930Z,4.73
2022-10-09T15:05:48.164Z,4.67
2022-10-09T15:07:51.534Z,5.50
2022-10-09T15:09:55.198Z,3.17
2022-10-09T15:11:59.918Z,3.33
2022-10-09T15:14:03.539Z,3.87
2022-10-09T15:16:08.709Z,4.23
2022-10-09T15:18:11.748Z,3.70
2022-10-09T15:20:14.740Z,3.90
2022-10-09T15:22:17.765Z,4.80
2022-10-09T15:24:20.776Z,4.53
2022-10-09T15:26:24.187Z,3.57
2022-10-09T15:28:29.031Z,4.33
2022-10-09T15:30:32.316Z,3.30
2022-10-09T15:32:35.536Z,3.00
2022-10-09T15:34:40.928Z,3.33
2022-10-09T15:36:45.764Z,5.63
2022-10-09T15:38:49.130Z,3.90
2022-10-09T15:40:54.646Z,4.00
2022-10-09T15:42:57.695Z,4.10
2022-10-09T15:45:02.086Z,3.53
2022-10-09T15:47:05.332Z,4.40
2022-10-09T15:49:08.747Z,3.93
2022-10-09T15:51:13.598Z,3.53
2022-10-09T15:53:17.668Z,5.10
2022-10-09T15:55:20.656Z,3.77
2022-10-09T15:57:23.731Z,4.60
2022-10-09T15:59:26.882Z,4.53
2022-10-09T16:01:31.373Z,4.03
2022-10-09T16:03:37.104Z,3.33
2022-10-09T16:05:40.569Z,4.23
2022-10-09T16:07:43.736Z,3.80
2022-10-09T16:09:46.726Z,6.63
2022-10-09T16:11:49.766Z,4.23
2022-10-09T16:13:53.106Z,5.20
2022-10-09T16:15:56.158Z,5.30
2022-10-09T16:18:00.617Z,3.90
2022-10-09T16:20:03.870Z,3.87
2022-10-09T16:22:06.890Z,6.30
2022-10-09T16:24:10.133Z,3.77
2022-10-09T16:26:15.252Z,3.90
2022-10-09T16:28:18.403Z,4.00
2022-10-09T16:30:21.725Z,3.23
2022-10-09T16:32:24.799Z,3.93
2022-10-09T16:34:29.168Z,3.97
2022-10-09T16:36:32.357Z,5.30
2022-10-09T16:38:35.442Z,4.77
2022-10-09T16:43:07.576Z,4.90
2022-10-09T16:45:12.130Z,4.37
2022-10-09T16:47:15.506Z,5.10
2022-10-09T16:49:21.503Z,5.27
2022-10-09T16:51:31.563Z,5.43
2022-10-09T16:53:34.745Z,4.17
2022-10-09T16:55:37.924Z,6.57
2022-10-09T16:57:41.005Z,4.07
2022-10-09T16:59:44.326Z,4.67
2022-10-09T17:01:49.542Z,4.67
2022-10-09T17:03:54.566Z,5.40
2022-10-09T17:05:57.554Z,4.90
2022-10-09T17:08:02.101Z,7.33
2022-10-09T17:10:05.938Z,7.47
2022-10-09T17:12:11.297Z,5.60
2022-10-09T17:14:14.938Z,5.20
2022-10-09T17:16:20.060Z,8.77
2022-10-09T17:18:23.458Z,5.20
2022-10-09T17:20:26.552Z,4.90
2022-10-09T17:22:29.601Z,6.77
2022-10-09T17:24:34.342Z,9.03
2022-10-09T17:26:37.403Z,6.13
2022-10-09T17:28:41.258Z,6.07
2022-10-09T17:30:44.412Z,5.50
2022-10-09T17:32:47.911Z,4.63
2022-10-09T17:34:52.049Z,5.90
2022-10-09T17:36:55.167Z,7.97
2022-10-09T17:38:58.492Z,6.30
2022-10-09T17:41:05.813Z,7.50
2022-10-09T17:43:09.229Z,6.60
2022-10-09T17:45:12.462Z,7.60
2022-10-09T17:47:15.470Z,8.17
2022-10-09T17:49:18.572Z,6.50
2022-10-09T17:51:23.927Z,6.57
2022-10-09T17:53:27.345Z,6.37
2022-10-09T17:55:31.141Z,13.13
2022-10-09T17:57:35.644Z,7.80
2022-10-09T17:59:38.903Z,6.73
2022-10-09T18:01:42.062Z,8.23
2022-10-09T18:03:45.602Z,8.30
2022-10-09T18:05:50.316Z,7.50
2022-10-09T18:07:53.544Z,7.63
2022-10-09T18:09:56.709Z,8.70
2022-10-09T18:11:59.922Z,10.77
2022-10-09T18:14:04.891Z,14.20
2022-10-09T18:16:08.871Z,13.47
2022-10-09T18:18:12.401Z,12.27
2022-10-09T18:20:15.618Z,9.90
2022-10-09T18:22:18.743Z,12.17
2022-10-09T18:24:22.062Z,9.27
2022-10-09T18:26:25.152Z,8.33
2022-10-09T18:30:41.655Z,5.50
2022-10-09T18:32:44.984Z,6.90
2022-10-09T18:34:48.167Z,8.13
2022-10-09T18:36:52.245Z,5.90
2022-10-09T18:38:56.514Z,7.23
2022-10-09T18:40:59.782Z,6.37
2022-10-09T18:43:03.108Z,7.40
2022-10-09T18:45:07.375Z,6.90
2022-10-09T18:47:14.627Z,5.20
2022-10-09T18:49:19.515Z,7.00
2022-10-09T18:51:24.840Z,7.37
2022-10-09T18:53:28.268Z,7.03
2022-10-09T18:55:31.412Z,7.00
2022-10-09T18:57:34.669Z,5.60
2022-10-09T18:59:38.495Z,5.90
2022-10-09T19:01:41.828Z,5.90
2022-10-09T19:03:49.957Z,9.50
2022-10-09T19:05:53.624Z,5.20
2022-10-09T19:07:56.731Z,5.20
2022-10-09T19:09:59.808Z,6.47
2022-10-09T19:12:02.882Z,8.70
2022-10-09T19:14:06.142Z,6.00
2022-10-09T19:16:09.895Z,5.17
2022-10-09T19:18:13.018Z,8.90
2022-10-09T19:20:17.719Z,7.87
2022-10-09T19:22:23.937Z,6.20
2022-10-09T19:24:30.037Z,5.30
2022-10-09T19:26:36.685Z,5.70
2022-10-09T19:28:41.375Z,6.10
2022-10-09T19:30:45.393Z,6.60
2022-10-09T19:32:48.970Z,8.43
2022-10-09T19:34:52.593Z,8.00
2022-10-09T19:36:57.038Z,15.93
2022-10-09T19:39:00.260Z,8.20
2022-10-09T19:41:07.880Z,7.07
2022-10-09T19:43:11.064Z,10.40
2022-10-09T19:45:14.309Z,7.07
2022-10-09T19:47:18.956Z,10.37
2022-10-09T19:49:21.966Z,11.43
2022-10-09T19:51:26.962Z,11.03
2022-10-09T19:53:31.578Z,9.60
2022-10-09T19:55:35.115Z,38.00
2022-10-09T19:57:38.516Z,11.03
2022-10-09T19:59:41.666Z,10.77
2022-10-09T20:01:44.778Z,11.73
2022-10-09T20:03:48.935Z,17.77
2022-10-09T20:05:52.141Z,10.27
2022-10-09T20:07:55.210Z,11.20
2022-10-09T20:09:59.577Z,8.43
2022-10-09T20:12:02.759Z,30.13
2022-10-09T20:14:05.968Z,18.23
2022-10-09T20:16:11.518Z,14.50
2022-10-09T20:18:14.560Z,10.20
2022-10-09T20:20:17.721Z,7.93
2022-10-09T20:22:20.794Z,6.20
2022-10-09T20:24:24.774Z,6.60
2022-10-09T20:26:29.788Z,8.07
2022-10-09T20:28:33.472Z,8.40
2022-10-09T20:30:36.570Z,6.73
2022-10-09T20:32:39.612Z,7.00
2022-10-09T20:34:42.722Z,7.30
2022-10-09T20:36:45.745Z,7.80
2022-10-09T20:38:48.912Z,8.30
2022-10-09T20:40:52.169Z,6.20
2022-10-09T20:42:56.719Z,6.70
2022-10-09T20:44:59.783Z,7.10
2022-10-09T20:47:02.917Z,8.20
2022-10-09T20:49:08.643Z,9.40
2022-10-09T20:51:11.739Z,7.97
2022-10-09T20:53:15.608Z,9.53
2022-10-09T20:55:18.739Z,8.77
2022-10-09T20:57:21.808Z,10.20
2022-10-09T20:59:26.587Z,13.13
2022-10-09T21:01:30.099Z,11.23
2022-10-09T21:03:33.341Z,9.40
2022-10-09T21:05:41.165Z,8.30
2022-10-09T21:07:44.762Z,9.47
2022-10-09T21:09:47.837Z,11.40
2022-10-09T21:11:51.033Z,9.80
2022-10-09T21:13:54.384Z,11.67
2022-10-09T21:15:58.817Z,10.23
2022-10-09T21:18:01.827Z,12.53
2022-10-09T21:20:05.064Z,11.03
2022-10-09T21:22:08.673Z,11.33
2022-10-09T21:24:11.803Z,10.67
2022-10-09T21:26:15.854Z,13.73
2022-10-09T21:28:19.422Z,15.20
2022-10-09T21:30:22.502Z,15.53
2022-10-09T21:32:27.068Z,13.70
2022-10-09T21:34:30.044Z,10.13
2022-10-09T21:36:47.131Z,15.00
2022-10-09T21:39:01.578Z,11.37
2022-10-09T21:41:04.827Z,11.13
2022-10-09T21:43:07.970Z,8.83
2022-10-09T21:45:12.338Z,10.90
2022-10-09T21:47:18.445Z,9.73
2022-10-09T21:49:24.826Z,10.23
2022-10-09T21:51:28.096Z,9.33
2022-10-09T21:53:31.116Z,11.33
2022-10-09T21:55:34.130Z,9.97
2022-10-09T21:57:37.186Z,10.97
2022-10-09T21:59:40.709Z,11.03
2022-10-09T22:01:43.717Z,9.53
2022-10-09T22:03:47.112Z,10.80
2022-10-09T22:05:51.553Z,11.67
2022-10-09T22:07:54.502Z,11.00
2022-10-09T22:09:57.817Z,11.10
2022-10-09T22:12:01.259Z,9.20
2022-10-09T22:14:05.502Z,10.83
2022-10-09T22:16:10.023Z,11.40
2022-10-09T22:18:13.407Z,11.80
2022-10-09T22:20:16.524Z,10.03
2022-10-09T22:22:23.724Z,10.67
2022-10-09T22:24:29.181Z,9.90
2022-10-09T22:26:32.467Z,11.40
2022-10-09T22:28:36.388Z,14.37
2022-10-09T22:30:39.386Z,20.40
2022-10-09T22:32:42.438Z,9.70
2022-10-09T22:34:45.428Z,14.77
2022-10-09T22:36:48.511Z,11.37
2022-10-09T22:38:53.925Z,10.27
2022-10-09T22:41:04.043Z,12.80
2022-10-09T22:43:07.075Z,9.20
2022-10-09T22:45:10.894Z,10.30
2022-10-09T22:47:13.899Z,9.37
2022-10-09T22:49:17.661Z,8.50
2022-10-09T22:51:22.968Z,8.63
2022-10-09T22:53:25.969Z,9.33
2022-10-09T22:55:30.286Z,9.63
2022-10-09T22:57:33.356Z,9.50
2022-10-09T22:59:36.388Z,8.43
2022-10-09T23:01:41.198Z,9.50
2022-10-09T23:03:44.313Z,8.10
2022-10-09T23:05:47.356Z,8.73
2022-10-09T23:07:50.406Z,9.90
2022-10-09T23:09:53.377Z,8.13
2022-10-09T23:11:58.690Z,9.50
2022-10-09T23:14:01.930Z,9.50
2022-10-09T23:16:06.873Z,11.00
2022-10-09T23:18:09.946Z,9.43
2022-10-09T23:20:12.859Z,10.73
2022-10-09T23:22:15.960Z,9.53
2022-10-09T23:24:18.868Z,9.27
2022-10-09T23:26:23.369Z,7.13
2022-10-09T23:28:27.961Z,7.83
2022-10-09T23:30:31.796Z,8.37
2022-10-09T23:32:34.743Z,8.73
2022-10-09T23:34:37.757Z,8.70
2022-10-09T23:36:40.693Z,8.30
2022-10-09T23:38:44.032Z,8.93
2022-10-09T23:40:55.816Z,8.77
2022-10-09T23:42:58.809Z,9.40
2022-10-09T23:45:03.408Z,7.10
2022-10-09T23:47:06.461Z,10.57
2022-10-09T23:49:09.455Z,10.50
2022-10-09T23:51:13.985Z,8.37
2022-10-09T23:53:17.265Z,7.50
2022-10-09T23:55:20.243Z,11.97
2022-10-09T23:57:23.364Z,6.70
2022-10-09T23:59:26.486Z,9.70
